Time;durP1;ratioP1;P1;durP2;ratioP2;P2;SDS_P1;SDS_P2;PMS_P1;PMS_P2;Temp;Humidity;BMP_temperature;BMP_pressure;BME280_temperature;BME280_humidity;BME280_pressure;Samples;Min_cycle;Max_cycle;Signal;HPM_P1;HPM_P2
2023/05/04 00:01:40;;;;;;;2.93;1.73;;;6.40;99.90;;;;;;5014315;28;20171;-79
2023/05/04 00:04:06;;;;;;;3.90;1.80;;;6.40;99.90;;;;;;5013105;28;20607;-79
2023/05/04 00:06:31;;;;;;;2.27;1.60;;;6.40;99.90;;;;;;5370019;23;20185;-80
2023/05/04 00:08:57;;;;;;;3.53;2.07;;;6.40;99.90;;;;;;5051487;28;20198;-81
2023/05/04 00:11:23;;;;;;;5.23;1.73;;;6.30;99.90;;;;;;5053827;28;20173;-81
2023/05/04 00:13:48;;;;;;;3.30;1.70;;;6.30;99.90;;;;;;5053426;28;20205;-81
2023/05/04 00:16:14;;;;;;;2.60;1.83;;;6.20;99.90;;;;;;5051920;28;20184;-80
2023/05/04 00:18:40;;;;;;;6.57;1.97;;;6.10;99.90;;;;;;5053459;28;20201;-81
2023/05/04 00:21:06;;;;;;;3.67;1.90;;;6.10;99.90;;;;;;5053828;28;20166;-81
2023/05/04 00:23:32;;;;;;;4.70;1.77;;;6.00;99.90;;;;;;5052272;28;20646;-81
2023/05/04 00:25:58;;;;;;;4.47;1.80;;;6.00;99.90;;;;;;5052357;28;20178;-81
2023/05/04 00:28:24;;;;;;;3.73;1.83;;;6.10;99.90;;;;;;5052046;28;20244;-81
2023/05/04 00:30:53;;;;;;;5.27;1.87;;;6.20;99.90;;;;;;5053604;28;20159;-81
2023/05/04 00:33:18;;;;;;;5.43;2.10;;;6.30;99.90;;;;;;5053479;28;20185;-80
2023/05/04 00:35:44;;;;;;;2.87;1.80;;;6.30;99.90;;;;;;5052396;28;20182;-81
2023/05/04 00:38:11;;;;;;;4.33;1.80;;;6.20;99.90;;;;;;5052752;28;20240;-80
2023/05/04 00:40:36;;;;;;;4.03;1.93;;;6.20;99.90;;;;;;5052255;28;20280;-80
2023/05/04 00:43:02;;;;;;;4.13;2.07;;;6.20;99.90;;;;;;5052897;28;20576;-81
2023/05/04 00:45:28;;;;;;;7.03;1.80;;;6.20;99.90;;;;;;5053423;28;20912;-80
2023/05/04 00:47:54;;;;;;;9.77;2.13;;;6.30;99.90;;;;;;5053517;28;20177;-80
2023/05/04 00:50:20;;;;;;;5.70;2.13;;;6.30;99.90;;;;;;5053469;28;20169;-80
2023/05/04 00:52:47;;;;;;;5.10;2.33;;;6.30;99.90;;;;;;5051837;28;20555;-80
2023/05/04 00:55:13;;;;;;;5.23;2.00;;;6.40;99.90;;;;;;5053419;28;20601;-81
2023/05/04 00:57:40;;;;;;;4.33;1.90;;;6.40;99.90;;;;;;5052848;28;20201;-81
2023/05/04 01:00:07;;;;;;;3.93;1.80;;;6.40;99.90;;;;;;5053250;28;20176;-81
2023/05/04 01:02:33;;;;;;;4.33;2.10;;;6.40;99.90;;;;;;5053029;28;20212;-81
2023/05/04 01:05:00;;;;;;;4.43;1.80;;;6.40;99.90;;;;;;5053407;28;20181;-81
2023/05/04 01:07:35;;;;;;;6.87;1.97;;;6.30;99.90;;;;;;5052503;28;20369;-80
2023/05/04 01:10:18;;;;;;;7.33;2.47;;;6.30;99.90;;;;;;5052972;28;20174;-79
2023/05/04 01:12:54;;;;;;;5.13;2.03;;;6.30;99.90;;;;;;5051628;28;20177;-80
2023/05/04 01:15:22;;;;;;;5.43;1.77;;;6.30;99.90;;;;;;5053338;28;20154;-80
2023/05/04 01:17:48;;;;;;;6.67;2.00;;;6.30;99.90;;;;;;5051815;28;20522;-81
2023/05/04 01:20:13;;;;;;;4.33;2.00;;;6.30;99.90;;;;;;5053047;28;20195;-80
2023/05/04 01:22:39;;;;;;;3.87;1.90;;;6.20;99.90;;;;;;5053020;28;20220;-80
2023/05/04 01:25:06;;;;;;;4.53;1.97;;;6.30;99.90;;;;;;5051973;28;20564;-81
2023/05/04 01:27:53;;;;;;;5.47;2.00;;;6.30;99.90;;;;;;5053574;28;20310;-80
2023/05/04 01:30:28;;;;;;;3.83;2.30;;;6.20;99.90;;;;;;5055580;28;20182;-81
2023/05/04 01:32:57;;;;;;;4.07;1.70;;;6.20;99.90;;;;;;5056743;28;20166;-80
2023/05/04 01:35:23;;;;;;;6.00;1.90;;;6.30;99.90;;;;;;5056795;28;20251;-80
2023/05/04 01:37:48;;;;;;;9.60;2.47;;;6.20;99.90;;;;;;5056635;28;20215;-80
2023/05/04 01:40:14;;;;;;;5.67;2.37;;;6.20;99.90;;;;;;5056714;28;20605;-80
2023/05/04 01:42:40;;;;;;;5.30;2.50;;;6.20;99.90;;;;;;5056088;28;20169;-81
2023/05/04 01:45:07;;;;;;;4.77;2.10;;;6.20;99.90;;;;;;5056723;28;20170;-81
2023/05/04 01:47:33;;;;;;;6.30;2.23;;;6.20;99.90;;;;;;5055304;28;20177;-81
2023/05/04 01:49:59;;;;;;;4.17;1.80;;;6.30;99.90;;;;;;5055273;28;20251;-81
2023/05/04 01:52:24;;;;;;;9.90;2.40;;;6.30;99.90;;;;;;5056547;28;20212;-81
2023/05/04 01:54:50;;;;;;;4.47;2.00;;;6.30;99.90;;;;;;5056610;28;20607;-79
2023/05/04 01:57:16;;;;;;;5.73;2.13;;;6.30;99.90;;;;;;5056392;28;20232;-80
2023/05/04 01:59:42;;;;;;;4.27;1.63;;;6.30;99.90;;;;;;5056254;28;20643;-80
2023/05/04 02:02:07;;;;;;;6.43;2.50;;;6.30;99.90;;;;;;5056209;28;20166;-80
2023/05/04 02:04:33;;;;;;;4.63;1.93;;;6.30;99.90;;;;;;5056432;28;20184;-80
2023/05/04 02:06:59;;;;;;;10.30;2.20;;;6.20;99.90;;;;;;5056153;28;20210;-81
2023/05/04 02:09:25;;;;;;;7.57;2.10;;;6.20;99.90;;;;;;5056287;28;20689;-81
2023/05/04 02:11:51;;;;;;;6.10;1.93;;;6.20;99.90;;;;;;5054867;28;20624;-80
2023/05/04 02:14:16;;;;;;;4.97;2.03;;;6.20;99.90;;;;;;5055580;28;20178;-80
2023/05/04 02:16:42;;;;;;;5.43;2.17;;;6.20;99.90;;;;;;5055905;28;20174;-79
2023/05/04 02:19:08;;;;;;;6.57;1.90;;;6.20;99.90;;;;;;5054534;28;20307;-79
2023/05/04 02:21:34;;;;;;;5.10;2.20;;;6.20;99.90;;;;;;5056042;28;20677;-80
2023/05/04 02:24:00;;;;;;;7.50;2.23;;;6.30;99.90;;;;;;5054683;28;20189;-81
2023/05/04 02:26:26;;;;;;;7.33;1.87;;;6.20;99.90;;;;;;5054503;28;20518;-81
2023/05/04 02:28:51;;;;;;;12.80;2.70;;;6.20;99.90;;;;;;5054339;28;20501;-81
2023/05/04 02:31:17;;;;;;;4.37;1.90;;;6.20;99.90;;;;;;5055686;28;20253;-80
2023/05/04 02:33:43;;;;;;;8.13;2.27;;;6.20;99.90;;;;;;5055626;28;20189;-80
2023/05/04 02:36:08;;;;;;;5.83;2.00;;;6.20;99.90;;;;;;5055757;28;20585;-79
2023/05/04 02:38:34;;;;;;;6.83;2.20;;;6.10;99.90;;;;;;5055570;28;20284;-80
2023/05/04 02:41:00;;;;;;;4.63;1.80;;;6.10;99.90;;;;;;5054897;28;20166;-80
2023/05/04 02:43:26;;;;;;;7.60;2.07;;;6.10;99.90;;;;;;5053735;28;20174;-80
2023/05/04 02:45:51;;;;;;;4.27;2.10;;;6.10;99.90;;;;;;5055546;28;20170;-81
2023/05/04 02:48:17;;;;;;;5.20;1.80;;;6.10;99.90;;;;;;5055378;28;20178;-81
2023/05/04 02:50:45;;;;;;;6.27;2.00;;;6.10;99.90;;;;;;5055433;28;20182;-81
2023/05/04 02:53:10;;;;;;;5.70;2.17;;;6.10;99.90;;;;;;5055322;28;20588;-80
2023/05/04 02:55:36;;;;;;;5.80;2.40;;;6.10;99.90;;;;;;5055386;28;20176;-81
2023/05/04 02:58:02;;;;;;;9.47;2.30;;;6.10;99.90;;;;;;5053733;28;20584;-80
2023/05/04 03:00:27;;;;;;;7.47;2.00;;;6.00;99.90;;;;;;5055078;28;20181;-80
2023/05/04 03:02:53;;;;;;;4.97;2.00;;;6.00;99.90;;;;;;5053865;28;20600;-80
2023/05/04 03:05:19;;;;;;;4.97;2.37;;;6.00;99.90;;;;;;5053896;28;20174;-80
2023/05/04 03:07:45;;;;;;;7.23;1.97;;;5.90;99.90;;;;;;5053230;28;20230;-81
2023/05/04 03:10:11;;;;;;;9.47;2.07;;;5.90;99.90;;;;;;5054837;28;20188;-81
2023/05/04 03:12:36;;;;;;;5.60;1.90;;;5.90;99.90;;;;;;5053285;28;20609;-81
2023/05/04 03:15:03;;;;;;;4.07;1.90;;;5.90;99.90;;;;;;5053542;28;20193;-80
2023/05/04 03:17:28;;;;;;;4.93;2.00;;;5.90;99.90;;;;;;5054922;28;20588;-80
2023/05/04 03:19:54;;;;;;;7.77;2.30;;;5.90;99.90;;;;;;5054602;28;20293;-81
2023/05/04 03:22:20;;;;;;;3.40;2.10;;;5.90;99.90;;;;;;5054594;28;20177;-80
2023/05/04 03:24:45;;;;;;;3.97;2.00;;;5.90;99.90;;;;;;5053468;28;20182;-80
2023/05/04 03:27:11;;;;;;;6.00;2.33;;;5.80;99.90;;;;;;5054698;28;20272;-81
2023/05/04 03:29:37;;;;;;;7.67;2.10;;;5.80;99.90;;;;;;5054406;28;20174;-80
2023/05/04 03:32:03;;;;;;;6.60;2.00;;;5.80;99.90;;;;;;5054554;28;20888;-80
2023/05/04 03:34:29;;;;;;;4.53;2.10;;;5.80;99.90;;;;;;5054674;28;20265;-80
2023/05/04 03:36:54;;;;;;;5.47;2.27;;;5.80;99.90;;;;;;5054573;28;20498;-81
2023/05/04 03:39:20;;;;;;;6.83;2.23;;;5.80;99.90;;;;;;5052965;28;20209;-81
2023/05/04 03:41:46;;;;;;;3.67;2.00;;;5.70;99.90;;;;;;5053137;28;20177;-81
2023/05/04 03:44:12;;;;;;;5.33;2.00;;;5.70;99.90;;;;;;5054110;28;20610;-81
2023/05/04 03:46:37;;;;;;;8.50;2.37;;;5.70;99.90;;;;;;5052996;28;20178;-81
2023/05/04 03:49:03;;;;;;;7.03;2.70;;;5.70;99.90;;;;;;5053087;28;20209;-80
2023/05/04 03:51:29;;;;;;;4.70;2.20;;;5.70;99.90;;;;;;5053344;28;20291;-81
2023/05/04 03:53:55;;;;;;;5.70;2.10;;;5.70;99.90;;;;;;5052841;28;20182;-80
2023/05/04 03:56:20;;;;;;;3.73;2.00;;;5.70;99.90;;;;;;5052840;28;20186;-81
2023/05/04 03:58:46;;;;;;;10.47;2.53;;;5.60;99.90;;;;;;5052507;28;20209;-80
2023/05/04 04:01:12;;;;;;;8.57;2.13;;;5.70;99.90;;;;;;5054069;28;20220;-80
2023/05/04 04:03:39;;;;;;;4.70;2.30;;;5.70;99.90;;;;;;5054087;28;20178;-82
2023/05/04 04:06:08;;;;;;;10.40;2.97;;;5.70;99.90;;;;;;5052934;28;20177;-80
2023/05/04 04:08:34;;;;;;;7.10;2.10;;;5.70;99.90;;;;;;5052500;28;20287;-81
2023/05/04 04:11:00;;;;;;;5.50;2.40;;;5.80;99.90;;;;;;5053938;28;20181;-81
2023/05/04 04:13:26;;;;;;;8.30;2.07;;;5.70;99.90;;;;;;5053529;28;20166;-81
2023/05/04 04:15:53;;;;;;;4.27;1.60;;;5.70;99.90;;;;;;5053875;28;20197;-80
2023/05/04 04:18:19;;;;;;;7.40;2.47;;;5.80;99.90;;;;;;5053449;28;20289;-80
2023/05/04 04:20:45;;;;;;;4.77;1.87;;;5.80;99.90;;;;;;5052158;28;20186;-80
2023/05/04 04:23:11;;;;;;;6.70;2.07;;;5.90;99.90;;;;;;5053459;28;20597;-81
2023/05/04 04:25:36;;;;;;;4.90;2.40;;;5.90;99.90;;;;;;5053705;28;20178;-81
2023/05/04 04:28:02;;;;;;;4.83;2.07;;;5.90;99.90;;;;;;5052098;28;20243;-80
2023/05/04 04:30:28;;;;;;;4.70;2.00;;;5.90;99.90;;;;;;5053623;28;20304;-80
2023/05/04 04:32:56;;;;;;;8.53;2.43;;;5.90;99.90;;;;;;5052323;28;20497;-81
2023/05/04 04:35:22;;;;;;;11.07;2.23;;;5.90;99.90;;;;;;5053638;28;20253;-81
2023/05/04 04:37:48;;;;;;;6.40;2.10;;;6.00;99.90;;;;;;5053416;28;20177;-81
2023/05/04 04:40:14;;;;;;;7.20;2.00;;;6.00;99.90;;;;;;5053148;28;20752;-81
2023/05/04 04:42:40;;;;;;;6.20;2.10;;;6.10;99.90;;;;;;5052244;28;20895;-81
2023/05/04 04:45:06;;;;;;;8.93;2.20;;;6.20;99.90;;;;;;5053486;28;20200;-82
2023/05/04 04:47:32;;;;;;;4.73;1.80;;;6.20;99.90;;;;;;5053071;28;20632;-80
2023/05/04 04:49:58;;;;;;;6.17;2.00;;;6.30;99.90;;;;;;5053128;28;20178;-80
2023/05/04 04:52:24;;;;;;;4.73;2.03;;;6.40;99.90;;;;;;5051081;28;20626;-80
2023/05/04 04:54:50;;;;;;;8.60;2.17;;;6.50;99.90;;;;;;5051189;28;20204;-80
2023/05/04 04:57:16;;;;;;;6.53;2.80;;;6.50;99.90;;;;;;5051770;28;20612;-80
2023/05/04 04:59:42;;;;;;;7.33;2.20;;;6.50;99.90;;;;;;5053170;28;20231;-81
2023/05/04 05:02:08;;;;;;;6.37;2.40;;;6.50;99.90;;;;;;5052775;28;20238;-81
2023/05/04 05:04:37;;;;;;;8.37;2.20;;;6.50;99.90;;;;;;5057346;28;20543;-80
2023/05/04 05:07:03;;;;;;;6.47;2.00;;;6.60;99.90;;;;;;5056570;28;20308;-81
2023/05/04 05:09:29;;;;;;;8.43;2.70;;;6.60;99.90;;;;;;5056216;28;20264;-80
2023/05/04 05:11:58;;;;;;;9.93;2.30;;;6.70;99.90;;;;;;5056868;28;20261;-81
2023/05/04 05:14:23;;;;;;;5.17;2.23;;;6.70;99.90;;;;;;5042161;28;20179;-80
2023/05/04 05:16:49;;;;;;;6.90;2.40;;;6.80;99.90;;;;;;5056510;28;20643;-80
2023/05/04 05:19:15;;;;;;;5.93;2.30;;;6.80;99.90;;;;;;5057063;28;20252;-80
2023/05/04 05:21:40;;;;;;;6.07;2.60;;;6.90;99.90;;;;;;5054573;28;20268;-81
2023/05/04 05:24:06;;;;;;;6.07;2.23;;;7.00;99.90;;;;;;5055533;28;20170;-80
2023/05/04 05:26:32;;;;;;;5.77;2.33;;;7.10;99.90;;;;;;5056117;28;20174;-80
2023/05/04 05:28:58;;;;;;;4.43;2.53;;;7.10;99.90;;;;;;5056867;28;20181;-79
2023/05/04 05:31:24;;;;;;;9.77;2.30;;;7.20;99.90;;;;;;5056664;28;20192;-79
2023/05/04 05:33:51;;;;;;;5.50;2.13;;;7.20;99.90;;;;;;5056610;28;20202;-79
2023/05/04 05:36:17;;;;;;;5.83;2.03;;;7.30;99.90;;;;;;5056537;28;20166;-79
2023/05/04 05:38:43;;;;;;;6.80;2.43;;;7.40;99.90;;;;;;5056783;28;20201;-80
2023/05/04 05:41:09;;;;;;;5.07;2.10;;;7.40;99.90;;;;;;5056688;28;20635;-79
2023/05/04 05:43:35;;;;;;;11.67;2.50;;;7.50;99.90;;;;;;5056705;28;20209;-80
2023/05/04 05:46:01;;;;;;;11.70;2.63;;;7.50;99.90;;;;;;5055374;28;20177;-80
2023/05/04 05:48:27;;;;;;;11.40;2.37;;;7.60;99.90;;;;;;5055357;28;20182;-80
2023/05/04 05:50:53;;;;;;;5.63;2.37;;;7.50;99.90;;;;;;5054813;28;20213;-80
2023/05/04 05:53:19;;;;;;;3.57;1.97;;;7.70;99.90;;;;;;5055182;28;20189;-81
2023/05/04 05:55:46;;;;;;;6.00;2.50;;;7.70;99.90;;;;;;5055218;28;20185;-81
2023/05/04 05:58:12;;;;;;;6.00;2.23;;;7.70;99.90;;;;;;5055194;28;20206;-80
2023/05/04 06:00:38;;;;;;;5.97;2.33;;;7.80;99.90;;;;;;5056565;28;20303;-80
2023/05/04 06:03:04;;;;;;;7.67;2.37;;;7.90;99.90;;;;;;5055984;28;20180;-80
2023/05/04 06:05:29;;;;;;;6.43;2.47;;;8.00;99.90;;;;;;5054760;28;20197;-80
2023/05/04 06:07:55;;;;;;;5.93;2.93;;;8.10;99.90;;;;;;5055628;28;20225;-79
2023/05/04 06:10:21;;;;;;;5.33;2.23;;;8.20;99.90;;;;;;5054869;28;20205;-80
2023/05/04 06:12:47;;;;;;;10.07;2.37;;;8.30;99.90;;;;;;5055246;28;20253;-80
2023/05/04 06:15:13;;;;;;;5.23;2.50;;;8.40;99.90;;;;;;5054830;28;20568;-81
2023/05/04 06:17:39;;;;;;;4.97;2.43;;;8.50;99.90;;;;;;5054323;28;20178;-81
2023/05/04 06:20:06;;;;;;;8.03;2.30;;;8.60;99.90;;;;;;5054270;28;20823;-81
2023/05/04 06:22:32;;;;;;;10.33;2.60;;;8.70;99.90;;;;;;5055346;28;20174;-81
2023/05/04 06:24:57;;;;;;;7.07;2.20;;;8.70;99.90;;;;;;5055926;28;20177;-81
2023/05/04 06:27:24;;;;;;;10.00;2.40;;;8.80;99.90;;;;;;5054648;28;20251;-80
2023/05/04 06:29:50;;;;;;;8.80;2.50;;;8.90;99.90;;;;;;5054454;28;20178;-80
2023/05/04 06:32:16;;;;;;;8.60;2.30;;;9.00;99.90;;;;;;5055556;28;20499;-80
2023/05/04 06:34:42;;;;;;;6.80;2.70;;;9.10;99.90;;;;;;5055797;28;20253;-79
2023/05/04 06:37:08;;;;;;;6.83;2.33;;;9.20;99.90;;;;;;5055285;28;20249;-80
2023/05/04 06:39:34;;;;;;;5.97;2.03;;;9.30;99.90;;;;;;5055501;28;20301;-79
2023/05/04 06:42:00;;;;;;;5.70;2.17;;;9.50;99.90;;;;;;5047684;28;20254;-79
2023/05/04 06:44:26;;;;;;;4.47;2.37;;;9.70;99.90;;;;;;5033841;28;20186;-80
2023/05/04 06:46:53;;;;;;;6.22;2.28;;;9.80;99.90;;;;;;5035396;28;20277;-79
2023/05/04 06:49:18;;;;;;;6.78;2.17;;;9.90;99.90;;;;;;5035280;28;20221;-80
2023/05/04 06:51:44;;;;;;;8.18;2.28;;;10.10;99.90;;;;;;5035009;28;20577;-80
2023/05/04 06:54:11;;;;;;;5.40;2.17;;;10.30;99.90;;;;;;5034182;28;20190;-81
2023/05/04 06:56:38;;;;;;;7.70;2.55;;;10.40;99.90;;;;;;5039254;28;20178;-80
2023/05/04 06:59:07;;;;;;;11.88;2.38;;;10.60;99.90;;;;;;5055249;28;20231;-80
2023/05/04 07:01:33;;;;;;;9.30;2.15;;;10.60;99.90;;;;;;5054168;28;20174;-80
2023/05/04 07:03:59;;;;;;;14.60;2.47;;;10.80;99.90;;;;;;5053016;28;20651;-80
2023/05/04 07:06:28;;;;;;;4.22;2.47;;;10.80;99.90;;;;;;5052841;28;20181;-80
2023/05/04 07:08:54;;;;;;;9.68;2.45;;;10.90;99.90;;;;;;5053574;28;20196;-81
2023/05/04 07:11:19;;;;;;;7.25;2.33;;;11.00;99.90;;;;;;5054641;28;20174;-80
2023/05/04 07:13:45;;;;;;;10.82;2.45;;;11.10;99.90;;;;;;5054237;28;20166;-80
2023/05/04 07:16:11;;;;;;;8.50;2.20;;;11.30;99.90;;;;;;5054630;28;20174;-81
2023/05/04 07:18:37;;;;;;;5.28;2.00;;;11.40;99.90;;;;;;5054615;28;20205;-80
2023/05/04 07:21:07;;;;;;;8.23;2.35;;;11.50;99.90;;;;;;5052848;28;20182;-81
2023/05/04 07:23:33;;;;;;;9.43;2.33;;;11.60;99.90;;;;;;5054588;28;20166;-80
2023/05/04 07:25:59;;;;;;;8.30;2.25;;;11.80;99.90;;;;;;5054174;28;20166;-81
2023/05/04 07:28:25;;;;;;;4.28;2.10;;;11.90;99.90;;;;;;5054210;28;20280;-81
2023/05/04 07:30:50;;;;;;;5.95;2.13;;;12.00;99.90;;;;;;5054337;28;20253;-81
2023/05/04 07:33:17;;;;;;;6.88;2.33;;;12.20;99.90;;;;;;5054256;28;20206;-80
2023/05/04 07:35:43;;;;;;;7.80;2.30;;;12.40;99.90;;;;;;5053858;28;20193;-79
2023/05/04 07:38:09;;;;;;;6.03;2.20;;;12.40;99.90;;;;;;5054341;28;20260;-81
2023/05/04 07:40:34;;;;;;;4.95;2.03;;;12.50;99.90;;;;;;5054257;28;20186;-80
2023/05/04 07:43:00;;;;;;;3.42;1.88;;;12.70;99.90;;;;;;5052572;28;20520;-80
2023/05/04 07:45:26;;;;;;;6.15;2.10;;;12.70;99.90;;;;;;5053005;28;20228;-81
2023/05/04 07:47:51;;;;;;;7.65;2.22;;;12.90;99.90;;;;;;5054152;28;20182;-81
2023/05/04 07:50:17;;;;;;;4.72;1.98;;;13.10;99.90;;;;;;5053974;28;20174;-82
2023/05/04 07:52:45;;;;;;;7.78;1.90;;;13.10;99.90;;;;;;5052241;28;20197;-81
2023/05/04 07:55:10;;;;;;;5.30;2.28;;;13.10;99.90;;;;;;5054030;28;20169;-81
2023/05/04 07:57:36;;;;;;;4.22;1.90;;;13.20;99.90;;;;;;5052869;28;20272;-82
2023/05/04 08:00:04;;;;;;;6.65;2.10;;;13.40;99.90;;;;;;5052481;28;20213;-81
2023/05/04 08:02:30;;;;;;;7.50;2.28;;;13.60;99.90;;;;;;5053672;28;20635;-80
2023/05/04 08:04:56;;;;;;;5.55;2.15;;;13.70;99.80;;;;;;5052465;28;20209;-81
2023/05/04 08:07:21;;;;;;;3.97;1.73;;;13.80;99.00;;;;;;5053225;28;20233;-81
2023/05/04 08:09:47;;;;;;;4.38;1.80;;;13.80;98.80;;;;;;5052451;28;20190;-81
2023/05/04 08:12:13;;;;;;;7.07;1.88;;;13.90;99.10;;;;;;5053576;28;20780;-81
2023/05/04 08:14:39;;;;;;;6.70;1.80;;;14.00;98.80;;;;;;5053527;28;20284;-79
2023/05/04 08:17:05;;;;;;;5.47;1.80;;;14.00;98.20;;;;;;5052394;28;20174;-81
2023/05/04 08:19:31;;;;;;;6.38;2.00;;;14.10;97.80;;;;;;5053298;28;20213;-81
2023/05/04 08:21:56;;;;;;;3.38;1.77;;;14.10;98.50;;;;;;5051911;28;20185;-80
2023/05/04 08:24:22;;;;;;;5.70;1.75;;;14.20;97.60;;;;;;5052494;28;20181;-80
2023/05/04 08:26:48;;;;;;;7.18;1.85;;;14.30;97.60;;;;;;5053363;28;20190;-82
2023/05/04 08:29:14;;;;;;;8.32;1.70;;;14.40;98.40;;;;;;5052059;28;20631;-81
2023/05/04 08:31:40;;;;;;;5.78;1.90;;;14.60;98.00;;;;;;5051998;28;20185;-80
2023/05/04 08:34:06;;;;;;;4.53;2.20;;;14.70;96.90;;;;;;5051789;28;20177;-80
2023/05/04 08:36:31;;;;;;;8.63;2.10;;;14.70;97.30;;;;;;5051469;28;20174;-81
2023/05/04 08:38:57;;;;;;;8.45;2.20;;;14.70;97.00;;;;;;5051746;28;20213;-80
2023/05/04 08:41:23;;;;;;;6.95;2.38;;;14.70;96.50;;;;;;5053423;28;20166;-81
2023/05/04 08:43:49;;;;;;;4.88;1.80;;;14.80;96.60;;;;;;5052199;28;20236;-81
2023/05/04 08:46:18;;;;;;;10.55;2.00;;;14.90;97.00;;;;;;5053474;28;20154;-81
2023/05/04 08:48:44;;;;;;;4.13;1.90;;;14.90;96.00;;;;;;5052071;28;20178;-80
2023/05/04 08:51:10;;;;;;;7.50;1.73;;;15.00;96.20;;;;;;5053266;28;20184;-82
2023/05/04 08:53:41;;;;;;;7.57;2.38;;;15.10;96.30;;;;;;5053269;28;20170;-81
2023/05/04 08:56:08;;;;;;;12.50;2.42;;;15.20;96.90;;;;;;5052201;28;20178;-82
2023/05/04 08:58:36;;;;;;;6.55;2.10;;;15.30;95.80;;;;;;5052182;28;20201;-82
2023/05/04 09:01:05;;;;;;;6.32;2.10;;;15.40;96.80;;;;;;5052043;28;20185;-82
2023/05/04 09:03:32;;;;;;;8.98;2.30;;;15.50;95.40;;;;;;5053101;28;20201;-82
2023/05/04 09:05:59;;;;;;;5.47;1.80;;;15.60;95.40;;;;;;5053181;28;20657;-82
2023/05/04 09:08:26;;;;;;;10.95;2.30;;;15.70;95.10;;;;;;5051777;28;20707;-80
2023/05/04 09:10:51;;;;;;;9.57;2.22;;;15.80;95.90;;;;;;5053257;28;20185;-79
2023/05/04 09:13:17;;;;;;;5.20;2.00;;;15.90;94.60;;;;;;5051801;28;20178;-81
2023/05/04 09:15:53;;;;;;;6.65;2.08;;;15.90;94.00;;;;;;5053253;28;20292;-81
2023/05/04 09:18:19;;;;;;;6.28;1.92;;;15.80;93.20;;;;;;5052660;28;20197;-81
2023/05/04 09:20:46;;;;;;;8.48;2.03;;;15.90;94.60;;;;;;5053233;28;20174;-81
2023/05/04 09:23:13;;;;;;;4.93;1.90;;;15.90;93.40;;;;;;5051568;28;20216;-80
2023/05/04 09:25:49;;;;;;;6.72;1.80;;;16.00;93.60;;;;;;5051930;28;20206;-82
2023/05/04 09:28:16;;;;;;;7.72;2.13;;;16.10;92.60;;;;;;5051859;28;20280;-82
2023/05/04 09:30:42;;;;;;;5.30;1.70;;;16.20;93.30;;;;;;5052927;28;20170;-81
2023/05/04 09:33:09;;;;;;;4.63;1.80;;;16.20;93.00;;;;;;5052842;28;20389;-80
2023/05/04 09:35:38;;;;;;;8.60;2.00;;;16.30;92.10;;;;;;5051163;28;20257;-83
2023/05/04 09:38:04;;;;;;;4.28;2.00;;;16.40;92.70;;;;;;5052832;28;20178;-81
2023/05/04 09:40:31;;;;;;;7.20;1.85;;;16.40;91.50;;;;;;5052940;28;20261;-81
2023/05/04 09:42:57;;;;;;;10.88;2.20;;;16.40;91.70;;;;;;5051330;28;20184;-81
2023/05/04 09:45:23;;;;;;;5.82;2.00;;;16.50;92.50;;;;;;5051832;28;20170;-80
2023/05/04 09:47:51;;;;;;;7.28;2.28;;;16.50;91.00;;;;;;5053005;28;20200;-80
2023/05/04 09:50:21;;;;;;;8.02;2.05;;;16.50;90.90;;;;;;5056180;28;20278;-81
2023/05/04 09:52:49;;;;;;;4.50;2.17;;;16.50;90.90;;;;;;5056224;28;20605;-80
2023/05/04 09:55:16;;;;;;;8.43;2.25;;;16.50;91.70;;;;;;5056539;28;20174;-80
2023/05/04 09:57:44;;;;;;;3.83;2.17;;;16.50;90.30;;;;;;5055179;28;20586;-81
2023/05/04 10:00:13;;;;;;;4.30;2.10;;;16.60;91.40;;;;;;5056362;28;20203;-82
2023/05/04 10:02:39;;;;;;;6.47;1.95;;;16.60;90.90;;;;;;5056220;28;20177;-82
2023/05/04 10:05:09;;;;;;;5.35;2.33;;;16.60;91.00;;;;;;5056317;28;20170;-81
2023/05/04 10:07:37;;;;;;;6.90;2.40;;;16.60;90.30;;;;;;5055801;28;20214;-81
2023/05/04 10:10:04;;;;;;;8.43;2.30;;;16.80;90.40;;;;;;5054473;28;20185;-81
2023/05/04 10:12:30;;;;;;;8.88;2.50;;;16.90;92.60;;;;;;5055889;28;20173;-81
2023/05/04 10:14:57;;;;;;;7.47;2.28;;;16.90;91.70;;;;;;5052142;28;20177;-82
2023/05/04 10:17:33;;;;;;;6.47;3.03;;;16.90;91.40;;;;;;5055905;28;20568;-82
2023/05/04 10:20:13;;;;;;;7.63;2.45;;;16.90;91.60;;;;;;5055439;28;20193;-83
2023/05/04 10:23:03;;;;;;;5.80;2.00;;;17.00;91.30;;;;;;5055299;28;20189;-82
2023/05/04 10:25:51;;;;;;;6.35;2.08;;;17.10;90.90;;;;;;5055830;28;20174;-81
2023/05/04 10:28:26;;;;;;;3.78;2.00;;;17.20;90.20;;;;;;5055662;28;20181;-82
2023/05/04 10:30:58;;;;;;;8.93;2.20;;;17.20;90.80;;;;;;5055406;28;20170;-82
2023/05/04 10:33:25;;;;;;;4.60;2.20;;;17.40;91.30;;;;;;5053997;28;20177;-82
2023/05/04 10:35:54;;;;;;;6.68;2.00;;;17.50;89.90;;;;;;5055760;28;20473;-83
2023/05/04 10:38:32;;;;;;;4.15;2.20;;;17.60;90.60;;;;;;5053724;28;20201;-84
2023/05/04 10:40:57;;;;;;;7.15;2.60;;;17.60;89.70;;;;;;5054081;28;20180;-82
2023/05/04 10:43:23;;;;;;;8.35;2.78;;;17.60;89.00;;;;;;5054077;28;20181;-80
2023/05/04 10:45:49;;;;;;;5.13;2.78;;;17.50;88.00;;;;;;5055345;28;20212;-80
2023/05/04 10:48:15;;;;;;;6.20;2.80;;;17.50;88.20;;;;;;5055268;28;20174;-80
2023/05/04 10:50:42;;;;;;;8.68;2.65;;;17.50;88.60;;;;;;5055115;28;20516;-81
2023/05/04 10:53:08;;;;;;;5.13;2.60;;;17.50;90.00;;;;;;5054694;28;20844;-82
2023/05/04 10:55:47;;;;;;;6.53;3.03;;;17.50;89.50;;;;;;5053696;28;20184;-81
2023/05/04 10:58:20;;;;;;;6.32;2.80;;;17.60;89.50;;;;;;5055050;28;20201;-82
2023/05/04 11:00:50;;;;;;;8.02;3.05;;;17.60;90.60;;;;;;5054613;28;20174;-81
2023/05/04 11:03:16;;;;;;;7.68;2.92;;;17.70;89.00;;;;;;5054835;28;20224;-82
2023/05/04 11:05:49;;;;;;;7.78;3.13;;;17.80;88.30;;;;;;5054953;28;20174;-81
2023/05/04 11:08:23;;;;;;;6.55;3.00;;;17.80;87.00;;;;;;5054035;28;20230;-82
2023/05/04 11:11:08;;;;;;;5.55;2.75;;;17.90;91.10;;;;;;5054693;28;20228;-81
2023/05/04 11:13:39;;;;;;;4.88;2.45;;;18.00;88.40;;;;;;5054637;28;20184;-80
2023/05/04 11:16:05;;;;;;;6.82;2.90;;;17.90;87.00;;;;;;5053284;28;20867;-82
2023/05/04 11:18:36;;;;;;;9.52;2.97;;;18.00;88.20;;;;;;5051474;28;20217;-81
2023/05/04 11:21:02;;;;;;;10.40;3.10;;;18.10;87.10;;;;;;5043116;28;20205;-80
2023/05/04 11:23:28;;;;;;;9.85;3.08;;;18.10;84.90;;;;;;5043435;28;20209;-81
2023/05/04 11:25:54;;;;;;;7.25;2.85;;;18.20;85.20;;;;;;5054511;28;20182;-81
2023/05/04 11:28:31;;;;;;;6.22;2.90;;;18.20;86.60;;;;;;5054218;28;20186;-80
2023/05/04 11:30:57;;;;;;;6.47;2.40;;;18.40;86.20;;;;;;5054486;28;20158;-81
2023/05/04 11:33:23;;;;;;;6.90;3.10;;;18.70;83.60;;;;;;5054245;28;20919;-80
2023/05/04 11:35:48;;;;;;;6.53;2.83;;;18.70;82.40;;;;;;5053122;28;20192;-79
2023/05/04 11:38:18;;;;;;;4.97;2.83;;;18.80;85.00;;;;;;5052645;28;20697;-81
2023/05/04 11:40:46;;;;;;;5.80;2.78;;;18.90;83.70;;;;;;5052563;28;20217;-80
2023/05/04 11:43:12;;;;;;;6.80;2.80;;;19.00;81.50;;;;;;5052517;28;20169;-81
2023/05/04 11:45:40;;;;;;;8.00;3.20;;;19.00;83.30;;;;;;5053821;28;20185;-80
2023/05/04 11:48:07;;;;;;;5.85;2.95;;;19.00;81.70;;;;;;5054137;28;20181;-80
2023/05/04 11:50:34;;;;;;;7.60;2.92;;;18.80;82.60;;;;;;5054079;28;20208;-81
2023/05/04 11:53:11;;;;;;;5.50;2.67;;;18.80;82.50;;;;;;5052446;28;20223;-79
2023/05/04 11:55:37;;;;;;;5.13;2.63;;;18.70;82.70;;;;;;5051172;28;20604;-82
2023/05/04 11:58:10;;;;;;;5.72;2.80;;;18.70;82.60;;;;;;5052663;28;20182;-81
2023/05/04 12:00:38;;;;;;;8.60;2.88;;;18.70;85.10;;;;;;5053638;28;20184;-80
2023/05/04 12:03:11;;;;;;;7.40;2.80;;;18.80;80.10;;;;;;5053592;28;20177;-81
2023/05/04 12:05:37;;;;;;;6.38;2.50;;;18.70;81.60;;;;;;5052195;28;20174;-82
2023/05/04 12:08:03;;;;;;;9.70;2.90;;;18.90;83.10;;;;;;5053011;28;20225;-81
2023/05/04 12:10:33;;;;;;;7.88;3.17;;;19.00;83.80;;;;;;5053214;28;20220;-81
2023/05/04 12:12:59;;;;;;;10.40;3.05;;;19.20;83.80;;;;;;5052656;28;20181;-81
2023/05/04 12:15:29;;;;;;;5.80;2.70;;;19.40;79.40;;;;;;5053871;28;20193;-81
2023/05/04 12:17:55;;;;;;;5.15;3.05;;;19.40;79.10;;;;;;5053988;28;20163;-80
2023/05/04 12:20:27;;;;;;;8.32;3.15;;;19.50;80.90;;;;;;5053621;28;20709;-80
2023/05/04 12:22:54;;;;;;;9.43;2.70;;;19.60;81.80;;;;;;5053408;28;20192;-80
2023/05/04 12:25:20;;;;;;;6.50;2.80;;;19.80;80.40;;;;;;5053704;28;20208;-82
2023/05/04 12:27:46;;;;;;;5.90;2.40;;;19.90;78.10;;;;;;5053820;28;20583;-81
2023/05/04 12:30:13;;;;;;;5.90;2.50;;;19.80;76.50;;;;;;5053718;28;20198;-81
2023/05/04 12:32:39;;;;;;;5.57;2.17;;;20.10;81.10;;;;;;5052283;28;20559;-81
2023/05/04 12:35:05;;;;;;;8.43;2.75;;;20.20;83.60;;;;;;5053653;28;20193;-81
2023/05/04 12:37:31;;;;;;;6.90;2.22;;;20.40;75.40;;;;;;5052104;28;20272;-80
2023/05/04 12:39:57;;;;;;;6.85;2.65;;;20.40;77.40;;;;;;5053436;28;20288;-81
2023/05/04 12:42:23;;;;;;;11.25;3.83;;;20.40;78.50;;;;;;5053357;28;20549;-81
2023/05/04 12:44:48;;;;;;;8.75;2.80;;;20.40;78.20;;;;;;5053543;28;20577;-80
2023/05/04 12:47:16;;;;;;;10.68;3.00;;;20.20;78.10;;;;;;5053577;28;20196;-80
2023/05/04 12:49:42;;;;;;;7.95;2.83;;;20.10;76.80;;;;;;5053396;28;20185;-81